Terminal Aerodrome Forecast
Issued by NWS Greer, SC

Home | Current Version | Previous Version | Text Only | Print | Product List | Glossary On
Versions: 1 2 3 4 5 6 7 8 9 10 11 12 13 14 15 16 17 18 19 20 21 22 23 24 25 26 27 28 29 30 31 32 33 34 35 36 37 38 39 40 41 42 43 44 45 46 47 48 49 50
000
FTUS42 KGSP 220553 RRA
TAFCLT
TAF
KCLT 220553Z 2206/2306 35005KT 5SM -DZ BR OVC003
     FM220800 36003KT 1SM BR VCSH OVC002
     FM221000 03003KT 1/2SM -SHRA FG OVC002
     FM221500 10006KT 1 1/2SM -SHRA BR OVC003
     FM221800 13004KT 2SM -SHRA BR OVC003 PROB30 2218/2224 1SM TSRA
      OVC003CB
     FM230000 15015G23KT 1 1/2SM TSRA BR OVC003CB=

USA.gov is the U.S. government's official web portal to all federal, state and local government web resources and services.